sensor_id;sensor_type;location;lat;lon;timestamp;P1;durP1;ratioP1;P2;durP2;ratioP2
51048;SDS011;37084;55.228;36.450;2023-05-10T00:02:26;9.65;;;3.70;;
51048;SDS011;37084;55.228;36.450;2023-05-10T00:05:27;7.70;;;3.20;;
51048;SDS011;37084;55.228;36.450;2023-05-10T00:08:28;7.28;;;3.70;;
51048;SDS011;37084;55.228;36.450;2023-05-10T00:11:30;9.07;;;3.75;;
51048;SDS011;37084;55.228;36.450;2023-05-10T00:14:31;8.50;;;4.25;;
51048;SDS011;37084;55.228;36.450;2023-05-10T00:17:32;8.00;;;3.92;;
51048;SDS011;37084;55.228;36.450;2023-05-10T00:20:34;14.73;;;3.85;;
51048;SDS011;37084;55.228;36.450;2023-05-10T00:23:35;6.57;;;3.33;;
51048;SDS011;37084;55.228;36.450;2023-05-10T00:26:36;7.82;;;3.72;;
51048;SDS011;37084;55.228;36.450;2023-05-10T00:29:38;6.60;;;3.60;;
51048;SDS011;37084;55.228;36.450;2023-05-10T00:32:39;9.32;;;3.78;;
51048;SDS011;37084;55.228;36.450;2023-05-10T00:35:40;7.50;;;4.05;;
51048;SDS011;37084;55.228;36.450;2023-05-10T00:38:43;6.35;;;3.72;;
51048;SDS011;37084;55.228;36.450;2023-05-10T00:41:44;7.20;;;4.05;;
51048;SDS011;37084;55.228;36.450;2023-05-10T00:44:46;7.85;;;4.13;;
51048;SDS011;37084;55.228;36.450;2023-05-10T00:47:48;7.75;;;3.70;;
51048;SDS011;37084;55.228;36.450;2023-05-10T00:50:49;5.97;;;3.58;;
51048;SDS011;37084;55.228;36.450;2023-05-10T00:53:50;6.35;;;3.10;;
51048;SDS011;37084;55.228;36.450;2023-05-10T00:56:52;9.40;;;3.40;;
51048;SDS011;37084;55.228;36.450;2023-05-10T00:59:53;8.27;;;3.10;;
51048;SDS011;37084;55.228;36.450;2023-05-10T01:02:54;7.55;;;3.42;;
51048;SDS011;37084;55.228;36.450;2023-05-10T01:05:56;5.85;;;3.55;;
51048;SDS011;37084;55.228;36.450;2023-05-10T01:08:59;7.97;;;3.78;;
51048;SDS011;37084;55.228;36.450;2023-05-10T01:12:00;5.35;;;3.22;;
51048;SDS011;37084;55.228;36.450;2023-05-10T01:15:04;5.93;;;3.47;;
51048;SDS011;37084;55.228;36.450;2023-05-10T01:18:07;7.40;;;3.42;;
51048;SDS011;37084;55.228;36.450;2023-05-10T01:21:36;5.60;;;3.25;;
51048;SDS011;37084;55.228;36.450;2023-05-10T01:31:26;8.43;;;3.78;;
51048;SDS011;37084;55.228;36.450;2023-05-10T01:34:35;6.50;;;3.75;;
51048;SDS011;37084;55.228;36.450;2023-05-10T01:37:52;10.02;;;4.13;;
51048;SDS011;37084;55.228;36.450;2023-05-10T01:44:39;8.13;;;5.13;;
51048;SDS011;37084;55.228;36.450;2023-05-10T01:48:10;6.93;;;3.55;;
51048;SDS011;37084;55.228;36.450;2023-05-10T01:51:13;5.63;;;3.72;;
51048;SDS011;37084;55.228;36.450;2023-05-10T01:54:19;6.97;;;4.38;;
51048;SDS011;37084;55.228;36.450;2023-05-10T01:57:21;6.70;;;3.40;;
51048;SDS011;37084;55.228;36.450;2023-05-10T02:03:28;5.60;;;3.55;;
51048;SDS011;37084;55.228;36.450;2023-05-10T02:06:31;6.30;;;3.50;;
51048;SDS011;37084;55.228;36.450;2023-05-10T02:09:34;7.30;;;5.00;;
51048;SDS011;37084;55.228;36.450;2023-05-10T02:12:36;7.20;;;3.85;;
51048;SDS011;37084;55.228;36.450;2023-05-10T02:15:40;6.90;;;3.65;;
51048;SDS011;37084;55.228;36.450;2023-05-10T02:18:42;5.35;;;3.05;;
51048;SDS011;37084;55.228;36.450;2023-05-10T02:21:44;6.28;;;3.65;;
51048;SDS011;37084;55.228;36.450;2023-05-10T02:24:46;6.55;;;3.42;;
51048;SDS011;37084;55.228;36.450;2023-05-10T02:27:48;6.25;;;3.38;;
51048;SDS011;37084;55.228;36.450;2023-05-10T02:30:49;5.10;;;3.47;;
51048;SDS011;37084;55.228;36.450;2023-05-10T02:33:51;7.50;;;3.67;;
51048;SDS011;37084;55.228;36.450;2023-05-10T02:36:54;7.72;;;3.65;;
51048;SDS011;37084;55.228;36.450;2023-05-10T02:39:57;5.10;;;3.13;;
51048;SDS011;37084;55.228;36.450;2023-05-10T02:42:59;5.13;;;3.33;;
51048;SDS011;37084;55.228;36.450;2023-05-10T02:46:02;6.18;;;3.90;;
51048;SDS011;37084;55.228;36.450;2023-05-10T02:49:04;6.43;;;3.35;;
51048;SDS011;37084;55.228;36.450;2023-05-10T02:52:06;5.07;;;2.70;;
51048;SDS011;37084;55.228;36.450;2023-05-10T02:55:11;7.40;;;3.80;;
51048;SDS011;37084;55.228;36.450;2023-05-10T02:58:13;5.07;;;4.18;;
51048;SDS011;37084;55.228;36.450;2023-05-10T03:01:14;5.00;;;3.28;;
51048;SDS011;37084;55.228;36.450;2023-05-10T03:04:16;5.25;;;3.40;;
51048;SDS011;37084;55.228;36.450;2023-05-10T03:07:17;7.20;;;3.58;;
51048;SDS011;37084;55.228;36.450;2023-05-10T03:10:24;7.22;;;3.25;;
51048;SDS011;37084;55.228;36.450;2023-05-10T03:13:36;6.57;;;3.95;;
51048;SDS011;37084;55.228;36.450;2023-05-10T03:16:47;5.18;;;3.10;;
51048;SDS011;37084;55.228;36.450;2023-05-10T03:19:56;6.38;;;3.92;;
51048;SDS011;37084;55.228;36.450;2023-05-10T03:23:13;7.78;;;3.20;;
51048;SDS011;37084;55.228;36.450;2023-05-10T03:26:20;7.70;;;3.00;;
51048;SDS011;37084;55.228;36.450;2023-05-10T03:29:31;7.10;;;3.25;;
51048;SDS011;37084;55.228;36.450;2023-05-10T03:32:33;6.32;;;3.50;;
51048;SDS011;37084;55.228;36.450;2023-05-10T03:35:35;5.38;;;3.15;;
51048;SDS011;37084;55.228;36.450;2023-05-10T03:38:37;5.97;;;3.25;;
51048;SDS011;37084;55.228;36.450;2023-05-10T03:41:39;7.40;;;3.38;;
51048;SDS011;37084;55.228;36.450;2023-05-10T03:44:41;11.20;;;3.63;;
51048;SDS011;37084;55.228;36.450;2023-05-10T03:47:43;10.85;;;3.58;;
51048;SDS011;37084;55.228;36.450;2023-05-10T03:50:45;6.53;;;3.38;;
51048;SDS011;37084;55.228;36.450;2023-05-10T03:53:48;6.22;;;4.30;;
51048;SDS011;37084;55.228;36.450;2023-05-10T03:56:49;6.10;;;3.45;;
51048;SDS011;37084;55.228;36.450;2023-05-10T03:59:52;5.47;;;3.03;;
51048;SDS011;37084;55.228;36.450;2023-05-10T04:02:53;6.47;;;2.85;;
51048;SDS011;37084;55.228;36.450;2023-05-10T04:05:58;6.15;;;3.22;;
51048;SDS011;37084;55.228;36.450;2023-05-10T04:09:01;6.15;;;3.08;;
51048;SDS011;37084;55.228;36.450;2023-05-10T04:12:05;3.55;;;2.40;;
51048;SDS011;37084;55.228;36.450;2023-05-10T04:15:06;5.15;;;3.25;;
51048;SDS011;37084;55.228;36.450;2023-05-10T04:18:08;5.45;;;2.60;;
51048;SDS011;37084;55.228;36.450;2023-05-10T04:21:12;4.32;;;3.13;;
51048;SDS011;37084;55.228;36.450;2023-05-10T04:24:14;6.10;;;3.05;;
51048;SDS011;37084;55.228;36.450;2023-05-10T04:27:15;6.50;;;3.63;;
51048;SDS011;37084;55.228;36.450;2023-05-10T04:30:16;4.82;;;3.03;;
51048;SDS011;37084;55.228;36.450;2023-05-10T04:33:18;6.18;;;3.20;;
51048;SDS011;37084;55.228;36.450;2023-05-10T04:36:19;6.88;;;4.13;;
51048;SDS011;37084;55.228;36.450;2023-05-10T04:39:21;4.72;;;3.20;;
51048;SDS011;37084;55.228;36.450;2023-05-10T04:42:22;5.93;;;3.75;;
51048;SDS011;37084;55.228;36.450;2023-05-10T04:45:23;4.50;;;2.55;;
51048;SDS011;37084;55.228;36.450;2023-05-10T04:48:24;3.53;;;2.75;;
51048;SDS011;37084;55.228;36.450;2023-05-10T04:51:25;6.80;;;3.80;;
51048;SDS011;37084;55.228;36.450;2023-05-10T04:54:26;5.03;;;3.38;;
51048;SDS011;37084;55.228;36.450;2023-05-10T04:57:28;7.10;;;3.17;;
51048;SDS011;37084;55.228;36.450;2023-05-10T05:00:29;5.20;;;2.90;;
51048;SDS011;37084;55.228;36.450;2023-05-10T05:03:30;5.10;;;3.00;;
51048;SDS011;37084;55.228;36.450;2023-05-10T05:06:31;5.75;;;3.15;;
51048;SDS011;37084;55.228;36.450;2023-05-10T05:09:33;5.95;;;3.30;;
51048;SDS011;37084;55.228;36.450;2023-05-10T05:12:34;5.28;;;3.78;;
51048;SDS011;37084;55.228;36.450;2023-05-10T05:15:35;4.85;;;2.70;;
51048;SDS011;37084;55.228;36.450;2023-05-10T05:18:37;3.90;;;2.83;;
51048;SDS011;37084;55.228;36.450;2023-05-10T05:21:38;6.47;;;4.55;;
51048;SDS011;37084;55.228;36.450;2023-05-10T05:24:40;4.80;;;2.65;;
51048;SDS011;37084;55.228;36.450;2023-05-10T05:27:42;5.40;;;2.97;;
51048;SDS011;37084;55.228;36.450;2023-05-10T05:30:43;8.40;;;2.83;;
51048;SDS011;37084;55.228;36.450;2023-05-10T05:33:44;5.85;;;3.50;;
51048;SDS011;37084;55.228;36.450;2023-05-10T05:36:46;7.53;;;3.03;;
51048;SDS011;37084;55.228;36.450;2023-05-10T05:39:47;7.00;;;3.10;;
51048;SDS011;37084;55.228;36.450;2023-05-10T05:42:48;5.90;;;3.33;;
51048;SDS011;37084;55.228;36.450;2023-05-10T05:45:51;5.07;;;3.03;;
51048;SDS011;37084;55.228;36.450;2023-05-10T05:48:54;5.95;;;2.80;;
51048;SDS011;37084;55.228;36.450;2023-05-10T05:51:58;7.07;;;3.03;;
51048;SDS011;37084;55.228;36.450;2023-05-10T05:55:03;6.43;;;3.00;;
51048;SDS011;37084;55.228;36.450;2023-05-10T05:58:05;7.53;;;2.35;;
51048;SDS011;37084;55.228;36.450;2023-05-10T06:01:06;8.70;;;2.45;;
51048;SDS011;37084;55.228;36.450;2023-05-10T06:04:09;4.35;;;2.88;;
51048;SDS011;37084;55.228;36.450;2023-05-10T06:07:11;3.95;;;2.15;;
51048;SDS011;37084;55.228;36.450;2023-05-10T06:10:12;5.30;;;2.70;;
51048;SDS011;37084;55.228;36.450;2023-05-10T06:13:13;5.28;;;2.05;;
51048;SDS011;37084;55.228;36.450;2023-05-10T06:16:14;7.07;;;2.47;;
51048;SDS011;37084;55.228;36.450;2023-05-10T06:19:16;2.35;;;1.60;;
51048;SDS011;37084;55.228;36.450;2023-05-10T06:22:17;5.35;;;2.35;;
51048;SDS011;37084;55.228;36.450;2023-05-10T06:25:18;4.13;;;1.95;;
51048;SDS011;37084;55.228;36.450;2023-05-10T06:28:19;4.55;;;1.83;;
51048;SDS011;37084;55.228;36.450;2023-05-10T06:31:20;3.30;;;1.95;;
51048;SDS011;37084;55.228;36.450;2023-05-10T06:34:21;3.85;;;2.17;;
51048;SDS011;37084;55.228;36.450;2023-05-10T06:37:22;3.38;;;1.25;;
51048;SDS011;37084;55.228;36.450;2023-05-10T06:40:23;2.75;;;1.42;;
51048;SDS011;37084;55.228;36.450;2023-05-10T06:43:25;2.20;;;1.63;;
51048;SDS011;37084;55.228;36.450;2023-05-10T06:46:27;3.20;;;1.70;;
51048;SDS011;37084;55.228;36.450;2023-05-10T06:49:28;3.00;;;1.98;;
51048;SDS011;37084;55.228;36.450;2023-05-10T06:52:29;2.45;;;2.08;;
51048;SDS011;37084;55.228;36.450;2023-05-10T06:55:30;1.80;;;1.33;;
51048;SDS011;37084;55.228;36.450;2023-05-10T06:58:31;2.83;;;1.58;;
51048;SDS011;37084;55.228;36.450;2023-05-10T07:01:33;3.25;;;1.80;;
51048;SDS011;37084;55.228;36.450;2023-05-10T07:04:34;1.83;;;1.40;;
51048;SDS011;37084;55.228;36.450;2023-05-10T07:07:35;2.75;;;1.42;;
51048;SDS011;37084;55.228;36.450;2023-05-10T07:10:37;2.08;;;1.23;;
51048;SDS011;37084;55.228;36.450;2023-05-10T07:13:38;5.88;;;1.40;;
51048;SDS011;37084;55.228;36.450;2023-05-10T07:16:41;2.70;;;1.35;;
51048;SDS011;37084;55.228;36.450;2023-05-10T07:19:43;2.22;;;1.42;;
51048;SDS011;37084;55.228;36.450;2023-05-10T07:22:44;2.17;;;1.45;;
51048;SDS011;37084;55.228;36.450;2023-05-10T07:25:49;2.22;;;1.30;;
51048;SDS011;37084;55.228;36.450;2023-05-10T07:28:52;2.25;;;1.30;;
51048;SDS011;37084;55.228;36.450;2023-05-10T07:31:53;1.60;;;1.35;;
51048;SDS011;37084;55.228;36.450;2023-05-10T07:34:54;2.28;;;1.42;;
51048;SDS011;37084;55.228;36.450;2023-05-10T07:37:55;2.45;;;2.10;;
51048;SDS011;37084;55.228;36.450;2023-05-10T07:40:56;1.83;;;1.10;;
51048;SDS011;37084;55.228;36.450;2023-05-10T07:43:57;2.25;;;1.20;;
51048;SDS011;37084;55.228;36.450;2023-05-10T07:46:59;1.30;;;1.20;;
51048;SDS011;37084;55.228;36.450;2023-05-10T07:50:00;2.47;;;2.22;;
51048;SDS011;37084;55.228;36.450;2023-05-10T07:53:04;1.95;;;1.40;;
51048;SDS011;37084;55.228;36.450;2023-05-10T07:56:25;2.17;;;1.13;;
51048;SDS011;37084;55.228;36.450;2023-05-10T07:59:30;1.75;;;1.40;;
51048;SDS011;37084;55.228;36.450;2023-05-10T08:02:31;1.60;;;1.17;;
51048;SDS011;37084;55.228;36.450;2023-05-10T08:05:34;2.20;;;1.52;;
51048;SDS011;37084;55.228;36.450;2023-05-10T08:08:35;1.55;;;1.33;;
51048;SDS011;37084;55.228;36.450;2023-05-10T08:11:36;2.33;;;1.30;;
51048;SDS011;37084;55.228;36.450;2023-05-10T08:14:38;2.95;;;1.45;;
51048;SDS011;37084;55.228;36.450;2023-05-10T08:17:39;2.53;;;2.05;;
51048;SDS011;37084;55.228;36.450;2023-05-10T08:20:40;2.00;;;1.55;;
51048;SDS011;37084;55.228;36.450;2023-05-10T08:23:41;2.22;;;1.20;;
51048;SDS011;37084;55.228;36.450;2023-05-10T08:26:44;1.60;;;1.33;;
51048;SDS011;37084;55.228;36.450;2023-05-10T08:29:45;3.13;;;2.20;;
51048;SDS011;37084;55.228;36.450;2023-05-10T08:32:46;1.92;;;1.65;;
51048;SDS011;37084;55.228;36.450;2023-05-10T08:35:48;2.13;;;1.27;;
51048;SDS011;37084;55.228;36.450;2023-05-10T08:38:52;2.55;;;1.27;;
51048;SDS011;37084;55.228;36.450;2023-05-10T08:41:54;1.50;;;1.40;;
51048;SDS011;37084;55.228;36.450;2023-05-10T08:44:59;2.40;;;1.25;;
51048;SDS011;37084;55.228;36.450;2023-05-10T08:48:01;1.65;;;1.20;;
51048;SDS011;37084;55.228;36.450;2023-05-10T08:51:03;1.55;;;1.20;;
51048;SDS011;37084;55.228;36.450;2023-05-10T08:54:04;1.42;;;1.20;;
51048;SDS011;37084;55.228;36.450;2023-05-10T08:57:06;2.42;;;1.48;;
51048;SDS011;37084;55.228;36.450;2023-05-10T09:00:07;2.05;;;1.30;;
51048;SDS011;37084;55.228;36.450;2023-05-10T09:03:09;2.10;;;1.23;;
51048;SDS011;37084;55.228;36.450;2023-05-10T09:06:11;2.60;;;1.20;;
51048;SDS011;37084;55.228;36.450;2023-05-10T09:09:14;1.42;;;1.33;;
51048;SDS011;37084;55.228;36.450;2023-05-10T09:12:15;2.42;;;1.67;;
51048;SDS011;37084;55.228;36.450;2023-05-10T09:15:17;1.55;;;1.10;;
51048;SDS011;37084;55.228;36.450;2023-05-10T09:18:19;3.65;;;1.08;;
51048;SDS011;37084;55.228;36.450;2023-05-10T09:21:20;2.33;;;0.90;;
51048;SDS011;37084;55.228;36.450;2023-05-10T09:24:25;1.33;;;1.23;;
51048;SDS011;37084;55.228;36.450;2023-05-10T09:27:30;2.75;;;1.50;;
51048;SDS011;37084;55.228;36.450;2023-05-10T09:30:31;1.75;;;1.00;;
51048;SDS011;37084;55.228;36.450;2023-05-10T09:33:43;2.20;;;1.15;;
51048;SDS011;37084;55.228;36.450;2023-05-10T09:36:54;2.10;;;1.10;;
51048;SDS011;37084;55.228;36.450;2023-05-10T09:40:03;2.38;;;1.10;;
51048;SDS011;37084;55.228;36.450;2023-05-10T09:43:06;2.85;;;1.10;;
51048;SDS011;37084;55.228;36.450;2023-05-10T09:46:08;1.60;;;1.00;;
51048;SDS011;37084;55.228;36.450;2023-05-10T09:49:14;2.92;;;1.40;;
51048;SDS011;37084;55.228;36.450;2023-05-10T09:55:18;1.77;;;1.20;;
51048;SDS011;37084;55.228;36.450;2023-05-10T09:58:23;1.48;;;1.10;;
51048;SDS011;37084;55.228;36.450;2023-05-10T10:01:28;1.67;;;1.33;;
51048;SDS011;37084;55.228;36.450;2023-05-10T10:04:30;2.05;;;1.30;;
51048;SDS011;37084;55.228;36.450;2023-05-10T10:07:31;1.50;;;1.10;;
51048;SDS011;37084;55.228;36.450;2023-05-10T10:10:33;3.85;;;1.52;;
51048;SDS011;37084;55.228;36.450;2023-05-10T10:13:34;3.30;;;1.00;;
51048;SDS011;37084;55.228;36.450;2023-05-10T10:16:35;3.20;;;1.15;;
51048;SDS011;37084;55.228;36.450;2023-05-10T10:19:36;2.35;;;1.33;;
51048;SDS011;37084;55.228;36.450;2023-05-10T10:22:38;1.85;;;0.98;;
51048;SDS011;37084;55.228;36.450;2023-05-10T10:25:39;1.65;;;1.00;;
51048;SDS011;37084;55.228;36.450;2023-05-10T10:28:47;1.45;;;1.20;;
51048;SDS011;37084;55.228;36.450;2023-05-10T10:32:10;1.38;;;1.10;;
51048;SDS011;37084;55.228;36.450;2023-05-10T10:35:19;2.85;;;1.20;;
51048;SDS011;37084;55.228;36.450;2023-05-10T10:38:21;2.15;;;1.10;;
51048;SDS011;37084;55.228;36.450;2023-05-10T10:41:33;1.63;;;1.52;;
51048;SDS011;37084;55.228;36.450;2023-05-10T10:44:54;1.45;;;1.02;;
51048;SDS011;37084;55.228;36.450;2023-05-10T10:48:21;1.50;;;1.00;;
51048;SDS011;37084;55.228;36.450;2023-05-10T10:51:23;2.22;;;1.42;;
51048;SDS011;37084;55.228;36.450;2023-05-10T10:54:27;2.50;;;1.40;;
51048;SDS011;37084;55.228;36.450;2023-05-10T10:57:48;2.50;;;1.55;;
51048;SDS011;37084;55.228;36.450;2023-05-10T11:00:52;1.98;;;1.33;;
51048;SDS011;37084;55.228;36.450;2023-05-10T11:07:18;2.15;;;1.35;;
51048;SDS011;37084;55.228;36.450;2023-05-10T11:10:20;2.90;;;1.38;;
51048;SDS011;37084;55.228;36.450;2023-05-10T11:16:43;2.10;;;1.30;;
51048;SDS011;37084;55.228;36.450;2023-05-10T11:20:01;3.28;;;1.42;;
51048;SDS011;37084;55.228;36.450;2023-05-10T11:23:13;2.28;;;1.23;;
51048;SDS011;37084;55.228;36.450;2023-05-10T11:26:18;2.65;;;1.38;;
51048;SDS011;37084;55.228;36.450;2023-05-10T11:29:19;1.98;;;1.67;;
51048;SDS011;37084;55.228;36.450;2023-05-10T11:32:20;1.75;;;1.23;;
51048;SDS011;37084;55.228;36.450;2023-05-10T11:35:22;1.67;;;1.23;;
51048;SDS011;37084;55.228;36.450;2023-05-10T11:38:23;2.47;;;1.48;;
51048;SDS011;37084;55.228;36.450;2023-05-10T11:41:25;2.00;;;1.38;;
51048;SDS011;37084;55.228;36.450;2023-05-10T11:44:31;1.65;;;1.15;;
51048;SDS011;37084;55.228;36.450;2023-05-10T11:47:33;3.08;;;1.48;;
51048;SDS011;37084;55.228;36.450;2023-05-10T11:50:36;2.42;;;1.42;;
51048;SDS011;37084;55.228;36.450;2023-05-10T11:53:37;2.00;;;1.45;;
51048;SDS011;37084;55.228;36.450;2023-05-10T11:56:41;1.70;;;1.35;;
51048;SDS011;37084;55.228;36.450;2023-05-10T11:59:42;3.60;;;1.67;;
51048;SDS011;37084;55.228;36.450;2023-05-10T12:02:43;2.05;;;1.20;;
51048;SDS011;37084;55.228;36.450;2023-05-10T12:05:45;1.95;;;1.45;;
51048;SDS011;37084;55.228;36.450;2023-05-10T12:08:47;2.75;;;1.40;;
51048;SDS011;37084;55.228;36.450;2023-05-10T12:11:48;2.30;;;1.27;;
51048;SDS011;37084;55.228;36.450;2023-05-10T12:14:50;1.98;;;1.48;;
51048;SDS011;37084;55.228;36.450;2023-05-10T12:17:51;2.05;;;1.40;;
51048;SDS011;37084;55.228;36.450;2023-05-10T12:20:52;2.10;;;1.65;;
51048;SDS011;37084;55.228;36.450;2023-05-10T12:23:56;2.15;;;1.40;;
51048;SDS011;37084;55.228;36.450;2023-05-10T12:27:04;2.22;;;1.55;;
51048;SDS011;37084;55.228;36.450;2023-05-10T12:30:07;2.22;;;1.63;;
51048;SDS011;37084;55.228;36.450;2023-05-10T12:33:10;1.98;;;1.30;;
51048;SDS011;37084;55.228;36.450;2023-05-10T12:36:13;1.90;;;1.58;;
51048;SDS011;37084;55.228;36.450;2023-05-10T12:39:15;5.55;;;1.80;;
51048;SDS011;37084;55.228;36.450;2023-05-10T12:42:16;2.75;;;1.73;;
51048;SDS011;37084;55.228;36.450;2023-05-10T12:45:17;3.33;;;1.85;;
51048;SDS011;37084;55.228;36.450;2023-05-10T12:48:19;2.58;;;1.60;;
51048;SDS011;37084;55.228;36.450;2023-05-10T12:51:20;2.58;;;1.45;;
51048;SDS011;37084;55.228;36.450;2023-05-10T12:54:22;2.65;;;1.50;;
51048;SDS011;37084;55.228;36.450;2023-05-10T12:57:24;2.47;;;1.73;;
51048;SDS011;37084;55.228;36.450;2023-05-10T13:00:25;2.05;;;1.15;;
51048;SDS011;37084;55.228;36.450;2023-05-10T13:03:27;2.13;;;1.55;;
51048;SDS011;37084;55.228;36.450;2023-05-10T13:06:28;2.80;;;1.40;;
51048;SDS011;37084;55.228;36.450;2023-05-10T13:09:29;3.03;;;1.60;;
51048;SDS011;37084;55.228;36.450;2023-05-10T13:12:30;3.25;;;1.63;;
51048;SDS011;37084;55.228;36.450;2023-05-10T13:15:31;2.38;;;1.63;;
51048;SDS011;37084;55.228;36.450;2023-05-10T13:18:33;2.40;;;1.52;;
51048;SDS011;37084;55.228;36.450;2023-05-10T13:21:34;2.15;;;1.55;;
51048;SDS011;37084;55.228;36.450;2023-05-10T13:24:35;2.40;;;1.50;;
51048;SDS011;37084;55.228;36.450;2023-05-10T13:27:36;3.28;;;1.60;;
51048;SDS011;37084;55.228;36.450;2023-05-10T13:30:38;2.13;;;1.58;;
51048;SDS011;37084;55.228;36.450;2023-05-10T13:33:39;3.75;;;1.45;;
51048;SDS011;37084;55.228;36.450;2023-05-10T13:36:40;3.28;;;1.63;;
51048;SDS011;37084;55.228;36.450;2023-05-10T13:39:42;2.72;;;1.65;;
51048;SDS011;37084;55.228;36.450;2023-05-10T13:42:43;1.63;;;1.38;;
51048;SDS011;37084;55.228;36.450;2023-05-10T13:45:44;2.15;;;1.73;;
51048;SDS011;37084;55.228;36.450;2023-05-10T13:48:45;2.05;;;1.45;;
51048;SDS011;37084;55.228;36.450;2023-05-10T13:51:46;4.28;;;1.70;;
51048;SDS011;37084;55.228;36.450;2023-05-10T13:54:47;2.35;;;1.33;;
51048;SDS011;37084;55.228;36.450;2023-05-10T13:57:49;3.17;;;1.90;;
51048;SDS011;37084;55.228;36.450;2023-05-10T14:00:50;3.75;;;1.95;;
51048;SDS011;37084;55.228;36.450;2023-05-10T14:03:51;2.13;;;1.88;;
51048;SDS011;37084;55.228;36.450;2023-05-10T14:06:52;3.60;;;2.10;;
51048;SDS011;37084;55.228;36.450;2023-05-10T14:09:53;2.83;;;1.75;;
51048;SDS011;37084;55.228;36.450;2023-05-10T14:12:54;2.83;;;1.70;;
51048;SDS011;37084;55.228;36.450;2023-05-10T14:15:56;3.55;;;1.50;;
51048;SDS011;37084;55.228;36.450;2023-05-10T14:18:57;2.45;;;1.67;;
51048;SDS011;37084;55.228;36.450;2023-05-10T14:21:58;3.00;;;1.60;;
51048;SDS011;37084;55.228;36.450;2023-05-10T14:24:59;3.90;;;1.83;;
51048;SDS011;37084;55.228;36.450;2023-05-10T14:28:01;2.63;;;2.10;;
51048;SDS011;37084;55.228;36.450;2023-05-10T14:31:02;2.90;;;1.95;;
51048;SDS011;37084;55.228;36.450;2023-05-10T14:34:03;3.17;;;1.73;;
51048;SDS011;37084;55.228;36.450;2023-05-10T14:37:04;5.13;;;1.58;;
51048;SDS011;37084;55.228;36.450;2023-05-10T14:40:05;3.22;;;1.40;;
51048;SDS011;37084;55.228;36.450;2023-05-10T14:43:07;3.03;;;1.75;;
51048;SDS011;37084;55.228;36.450;2023-05-10T14:46:09;4.78;;;1.50;;
51048;SDS011;37084;55.228;36.450;2023-05-10T14:49:10;2.72;;;1.60;;
51048;SDS011;37084;55.228;36.450;2023-05-10T14:52:11;3.40;;;1.63;;
51048;SDS011;37084;55.228;36.450;2023-05-10T14:55:14;2.50;;;1.70;;
51048;SDS011;37084;55.228;36.450;2023-05-10T14:58:16;2.38;;;1.58;;
51048;SDS011;37084;55.228;36.450;2023-05-10T15:01:17;4.90;;;1.90;;
51048;SDS011;37084;55.228;36.450;2023-05-10T15:04:18;4.85;;;1.83;;
51048;SDS011;37084;55.228;36.450;2023-05-10T15:07:19;2.45;;;1.65;;
51048;SDS011;37084;55.228;36.450;2023-05-10T15:10:20;2.13;;;1.60;;
51048;SDS011;37084;55.228;36.450;2023-05-10T15:13:22;3.13;;;2.28;;
51048;SDS011;37084;55.228;36.450;2023-05-10T15:16:23;4.97;;;2.03;;
51048;SDS011;37084;55.228;36.450;2023-05-10T15:19:24;4.03;;;1.88;;
51048;SDS011;37084;55.228;36.450;2023-05-10T15:22:26;2.20;;;1.70;;
51048;SDS011;37084;55.228;36.450;2023-05-10T15:25:28;2.75;;;1.60;;
51048;SDS011;37084;55.228;36.450;2023-05-10T15:28:30;3.25;;;2.05;;
51048;SDS011;37084;55.228;36.450;2023-05-10T15:31:31;3.40;;;2.22;;
51048;SDS011;37084;55.228;36.450;2023-05-10T15:34:35;2.92;;;1.98;;
51048;SDS011;37084;55.228;36.450;2023-05-10T15:37:36;4.30;;;1.73;;
51048;SDS011;37084;55.228;36.450;2023-05-10T15:40:38;3.72;;;2.10;;
51048;SDS011;37084;55.228;36.450;2023-05-10T15:43:39;2.78;;;1.85;;
51048;SDS011;37084;55.228;36.450;2023-05-10T15:46:41;3.25;;;1.70;;
51048;SDS011;37084;55.228;36.450;2023-05-10T15:49:42;2.88;;;1.92;;
51048;SDS011;37084;55.228;36.450;2023-05-10T15:52:43;2.83;;;2.03;;
51048;SDS011;37084;55.228;36.450;2023-05-10T15:55:44;9.43;;;2.15;;
51048;SDS011;37084;55.228;36.450;2023-05-10T15:58:45;3.20;;;2.28;;
51048;SDS011;37084;55.228;36.450;2023-05-10T16:01:49;3.45;;;1.77;;
51048;SDS011;37084;55.228;36.450;2023-05-10T16:04:50;3.28;;;1.73;;
51048;SDS011;37084;55.228;36.450;2023-05-10T16:07:51;3.85;;;1.80;;
51048;SDS011;37084;55.228;36.450;2023-05-10T16:10:53;3.65;;;1.88;;
51048;SDS011;37084;55.228;36.450;2023-05-10T16:13:54;3.35;;;1.90;;
51048;SDS011;37084;55.228;36.450;2023-05-10T16:16:55;4.05;;;1.92;;
51048;SDS011;37084;55.228;36.450;2023-05-10T16:19:56;3.22;;;1.70;;
51048;SDS011;37084;55.228;36.450;2023-05-10T16:23:00;3.42;;;1.67;;
51048;SDS011;37084;55.228;36.450;2023-05-10T16:26:03;4.30;;;1.85;;
51048;SDS011;37084;55.228;36.450;2023-05-10T16:29:06;4.43;;;1.80;;
51048;SDS011;37084;55.228;36.450;2023-05-10T16:32:07;4.65;;;2.05;;
51048;SDS011;37084;55.228;36.450;2023-05-10T16:35:08;4.68;;;2.25;;
51048;SDS011;37084;55.228;36.450;2023-05-10T16:38:10;4.88;;;1.77;;
51048;SDS011;37084;55.228;36.450;2023-05-10T16:41:11;3.42;;;2.38;;
51048;SDS011;37084;55.228;36.450;2023-05-10T16:44:12;3.03;;;1.65;;
51048;SDS011;37084;55.228;36.450;2023-05-10T16:47:14;3.63;;;2.03;;
51048;SDS011;37084;55.228;36.450;2023-05-10T16:50:15;4.97;;;2.17;;
51048;SDS011;37084;55.228;36.450;2023-05-10T16:53:16;4.32;;;1.77;;
51048;SDS011;37084;55.228;36.450;2023-05-10T16:56:18;3.38;;;2.13;;
51048;SDS011;37084;55.228;36.450;2023-05-10T16:59:21;3.08;;;2.45;;
51048;SDS011;37084;55.228;36.450;2023-05-10T17:02:22;3.53;;;1.70;;
51048;SDS011;37084;55.228;36.450;2023-05-10T17:05:23;3.28;;;2.15;;
51048;SDS011;37084;55.228;36.450;2023-05-10T17:08:25;4.70;;;2.35;;
51048;SDS011;37084;55.228;36.450;2023-05-10T17:11:27;5.90;;;2.10;;
51048;SDS011;37084;55.228;36.450;2023-05-10T17:14:29;5.65;;;2.33;;
51048;SDS011;37084;55.228;36.450;2023-05-10T17:17:32;3.13;;;2.00;;
51048;SDS011;37084;55.228;36.450;2023-05-10T17:20:33;3.25;;;1.92;;
51048;SDS011;37084;55.228;36.450;2023-05-10T17:23:35;3.78;;;1.83;;
51048;SDS011;37084;55.228;36.450;2023-05-10T17:26:36;2.88;;;2.17;;
51048;SDS011;37084;55.228;36.450;2023-05-10T17:29:37;7.45;;;2.25;;
51048;SDS011;37084;55.228;36.450;2023-05-10T17:32:39;3.90;;;2.28;;
51048;SDS011;37084;55.228;36.450;2023-05-10T17:35:43;4.68;;;2.42;;
51048;SDS011;37084;55.228;36.450;2023-05-10T17:38:45;8.15;;;3.67;;
51048;SDS011;37084;55.228;36.450;2023-05-10T17:41:47;9.25;;;4.53;;
51048;SDS011;37084;55.228;36.450;2023-05-10T17:44:48;4.13;;;2.33;;
51048;SDS011;37084;55.228;36.450;2023-05-10T17:47:49;3.67;;;2.20;;
51048;SDS011;37084;55.228;36.450;2023-05-10T17:50:50;5.70;;;3.17;;
51048;SDS011;37084;55.228;36.450;2023-05-10T17:53:52;3.97;;;2.42;;
51048;SDS011;37084;55.228;36.450;2023-05-10T17:56:53;4.72;;;2.40;;
51048;SDS011;37084;55.228;36.450;2023-05-10T17:59:54;4.45;;;2.17;;
51048;SDS011;37084;55.228;36.450;2023-05-10T18:02:56;4.68;;;2.53;;
51048;SDS011;37084;55.228;36.450;2023-05-10T18:06:01;5.07;;;2.45;;
51048;SDS011;37084;55.228;36.450;2023-05-10T18:09:03;6.03;;;2.83;;
51048;SDS011;37084;55.228;36.450;2023-05-10T18:12:06;5.60;;;2.67;;
51048;SDS011;37084;55.228;36.450;2023-05-10T18:15:08;5.40;;;1.95;;
51048;SDS011;37084;55.228;36.450;2023-05-10T18:18:10;5.50;;;2.63;;
51048;SDS011;37084;55.228;36.450;2023-05-10T18:21:11;2.95;;;2.35;;
51048;SDS011;37084;55.228;36.450;2023-05-10T18:24:13;5.90;;;2.83;;
51048;SDS011;37084;55.228;36.450;2023-05-10T18:27:14;5.18;;;2.70;;